createdAt,value
2022-09-15T00:02:02.868Z,3.20
2022-09-15T00:07:01.743Z,3.70
2022-09-15T00:09:31.451Z,3.90
2022-09-15T00:12:00.748Z,2.70
2022-09-15T00:14:30.812Z,3.00
2022-09-15T00:17:02.376Z,3.90
2022-09-15T00:19:32.350Z,3.20
2022-09-15T00:22:02.066Z,3.60
2022-09-15T00:24:32.327Z,3.60
2022-09-15T00:27:02.553Z,3.00
2022-09-15T00:29:32.480Z,3.40
2022-09-15T00:32:02.715Z,2.80
2022-09-15T00:34:32.970Z,2.80
2022-09-15T00:37:04.429Z,3.00
2022-09-15T00:39:36.481Z,2.90
2022-09-15T00:42:07.677Z,2.80
2022-09-15T00:44:37.684Z,3.60
2022-09-15T00:47:19.378Z,3.00
2022-09-15T00:49:59.256Z,2.40
2022-09-15T00:52:32.645Z,3.60
2022-09-15T00:55:13.335Z,3.20
2022-09-15T00:57:55.131Z,2.50
2022-09-15T01:00:28.565Z,2.80
2022-09-15T01:02:59.515Z,3.70
2022-09-15T01:05:47.303Z,4.10
2022-09-15T01:08:43.064Z,3.00
2022-09-15T01:11:16.008Z,3.30
2022-09-15T01:13:47.647Z,3.10
2022-09-15T01:16:51.620Z,3.00
2022-09-15T01:19:57.331Z,3.20
2022-09-15T01:22:27.310Z,3.60
2022-09-15T01:25:09.640Z,3.20
2022-09-15T01:27:53.317Z,3.30
2022-09-15T01:30:26.800Z,2.90
2022-09-15T01:33:18.090Z,3.60
2022-09-15T01:36:13.840Z,3.80
2022-09-15T01:39:03.076Z,4.30
2022-09-15T01:42:04.856Z,3.90
2022-09-15T01:44:42.846Z,3.40
2022-09-15T01:47:16.463Z,4.10
2022-09-15T01:49:52.495Z,3.40
2022-09-15T01:52:25.376Z,3.70
2022-09-15T01:55:00.201Z,3.50
2022-09-15T01:57:30.973Z,3.30
2022-09-15T02:00:01.694Z,3.10
2022-09-15T02:02:59.439Z,3.10
2022-09-15T02:05:39.177Z,3.00
2022-09-15T02:08:26.997Z,3.50
2022-09-15T02:11:12.213Z,3.40
2022-09-15T02:13:54.382Z,3.30
2022-09-15T02:16:26.819Z,3.30
2022-09-15T02:19:37.471Z,2.70
2022-09-15T02:22:23.761Z,2.90
2022-09-15T02:24:58.235Z,3.40
2022-09-15T02:27:32.456Z,2.70
2022-09-15T02:30:11.545Z,3.30
2022-09-15T02:33:09.923Z,3.60
2022-09-15T02:35:41.870Z,3.10
2022-09-15T02:38:12.670Z,3.00
2022-09-15T02:40:45.507Z,2.90
2022-09-15T02:43:18.114Z,2.40
2022-09-15T02:45:50.364Z,2.80
2022-09-15T02:48:21.082Z,3.70
2022-09-15T02:50:51.111Z,3.10
2022-09-15T02:55:54.292Z,3.70
2022-09-15T02:58:24.150Z,3.40
2022-09-15T03:00:54.061Z,3.40
2022-09-15T03:03:26.119Z,3.20
2022-09-15T03:05:55.615Z,3.70
2022-09-15T03:08:25.716Z,3.20
2022-09-15T03:10:57.845Z,3.40
2022-09-15T03:13:27.703Z,3.60
2022-09-15T03:18:27.060Z,3.20
2022-09-15T03:20:57.549Z,3.20
2022-09-15T03:23:27.550Z,2.70
2022-09-15T03:25:56.637Z,2.80
2022-09-15T03:28:27.413Z,2.90
2022-09-15T03:30:57.594Z,3.70
2022-09-15T03:33:27.464Z,3.60
2022-09-15T03:35:57.856Z,4.10
2022-09-15T03:38:27.594Z,3.70
2022-09-15T03:43:32.797Z,3.40
2022-09-15T03:46:03.337Z,3.60
2022-09-15T03:48:35.340Z,3.50
2022-09-15T03:51:06.040Z,3.20
2022-09-15T03:53:40.433Z,3.60
2022-09-15T03:56:22.438Z,3.40
2022-09-15T03:58:53.108Z,4.30
2022-09-15T04:01:23.291Z,3.40
2022-09-15T04:06:22.404Z,3.40
2022-09-15T04:08:52.464Z,3.40
2022-09-15T04:11:23.187Z,3.00
2022-09-15T04:13:54.028Z,3.30
2022-09-15T04:16:24.731Z,3.80
2022-09-15T04:18:55.548Z,3.70
2022-09-15T04:21:27.027Z,3.60
2022-09-15T04:23:55.983Z,3.20
2022-09-15T04:26:34.647Z,3.20
2022-09-15T04:29:05.223Z,3.40
2022-09-15T04:31:34.938Z,3.50
2022-09-15T04:36:32.838Z,2.80
2022-09-15T04:39:02.136Z,3.00
2022-09-15T04:41:31.322Z,3.50
2022-09-15T04:44:01.246Z,2.90
2022-09-15T04:46:31.543Z,3.90
2022-09-15T04:49:00.554Z,4.80
2022-09-15T04:51:29.872Z,4.60
2022-09-15T04:53:59.087Z,4.80
2022-09-15T04:56:28.254Z,3.90
2022-09-15T04:59:03.639Z,4.00
2022-09-15T05:01:35.619Z,3.80
2022-09-15T05:04:05.266Z,3.60
2022-09-15T05:09:10.260Z,3.60
2022-09-15T05:11:41.603Z,3.60
2022-09-15T05:14:11.906Z,4.50
2022-09-15T05:16:44.675Z,3.60
2022-09-15T05:19:16.329Z,3.70
2022-09-15T05:21:47.088Z,3.50
2022-09-15T05:24:17.328Z,3.30
2022-09-15T05:26:48.384Z,4.00
2022-09-15T05:29:20.135Z,3.60
2022-09-15T05:31:53.246Z,3.10
2022-09-15T05:34:23.994Z,2.80
2022-09-15T05:36:54.716Z,3.10
2022-09-15T05:39:27.244Z,3.20
2022-09-15T05:41:56.763Z,4.20
2022-09-15T05:44:27.814Z,4.90
2022-09-15T05:46:58.090Z,5.80
2022-09-15T05:49:33.214Z,5.20
2022-09-15T05:52:03.769Z,4.80
2022-09-15T05:54:34.007Z,5.40
2022-09-15T05:57:04.920Z,5.10
2022-09-15T05:59:40.138Z,4.50
2022-09-15T06:02:12.663Z,4.80
2022-09-15T06:04:44.649Z,3.60
2022-09-15T06:07:26.833Z,3.60
2022-09-15T06:09:58.653Z,2.80
2022-09-15T06:12:29.822Z,3.20
2022-09-15T06:15:00.729Z,3.60
2022-09-15T06:17:34.006Z,3.10
2022-09-15T06:20:08.704Z,3.70
2022-09-15T06:22:40.232Z,4.30
2022-09-15T06:25:09.845Z,3.80
2022-09-15T06:27:42.163Z,3.70
2022-09-15T06:30:16.131Z,3.60
2022-09-15T06:32:49.717Z,3.20
2022-09-15T06:35:19.606Z,3.20
2022-09-15T06:37:50.309Z,3.80
2022-09-15T06:40:22.705Z,4.10
2022-09-15T06:42:57.661Z,4.50
2022-09-15T06:45:27.707Z,3.70
2022-09-15T06:48:20.182Z,3.90
2022-09-15T06:50:55.700Z,2.80
2022-09-15T06:53:25.153Z,3.10
2022-09-15T06:55:53.830Z,3.00
2022-09-15T06:58:23.841Z,3.20
2022-09-15T07:00:52.744Z,2.30
2022-09-15T07:03:21.564Z,3.00
2022-09-15T07:05:51.227Z,2.80
2022-09-15T07:08:27.046Z,3.00
2022-09-15T07:11:02.539Z,3.50
2022-09-15T07:13:31.732Z,3.60
2022-09-15T07:16:10.391Z,3.70
2022-09-15T07:18:47.267Z,3.70
2022-09-15T07:21:20.173Z,3.20
2022-09-15T07:23:49.938Z,3.50
2022-09-15T07:26:29.256Z,3.70
2022-09-15T07:29:04.194Z,4.00
2022-09-15T07:31:35.013Z,3.40
2022-09-15T07:34:04.230Z,4.10
2022-09-15T07:36:33.931Z,3.50
2022-09-15T07:39:07.123Z,3.90
2022-09-15T07:41:36.018Z,3.70
2022-09-15T07:44:08.606Z,3.40
2022-09-15T07:46:37.277Z,3.50
2022-09-15T07:49:07.084Z,3.10
2022-09-15T07:51:36.485Z,3.40
2022-09-15T07:54:05.790Z,3.00
2022-09-15T07:56:34.647Z,3.20
2022-09-15T07:59:03.473Z,3.30
2022-09-15T08:01:32.447Z,3.50
2022-09-15T08:04:02.177Z,3.10
2022-09-15T08:09:00.924Z,3.30
2022-09-15T08:11:30.841Z,3.10
2022-09-15T08:14:02.598Z,3.20
2022-09-15T08:16:31.818Z,3.40
2022-09-15T08:19:01.144Z,2.90
2022-09-15T08:21:30.242Z,2.80
2022-09-15T08:24:00.880Z,2.70
2022-09-15T08:26:32.417Z,3.30
2022-09-15T08:29:01.923Z,3.40
2022-09-15T08:31:30.848Z,3.40
2022-09-15T08:34:04.310Z,3.10
2022-09-15T08:36:36.278Z,3.20
2022-09-15T08:39:05.172Z,3.20
2022-09-15T08:41:41.545Z,3.10
2022-09-15T08:44:45.749Z,3.20
2022-09-15T08:47:15.057Z,3.00
2022-09-15T08:50:05.864Z,3.40
2022-09-15T08:52:46.423Z,3.50
2022-09-15T08:55:45.011Z,3.70
2022-09-15T08:58:36.122Z,4.20
2022-09-15T09:01:48.570Z,3.60
2022-09-15T09:04:36.267Z,3.20
2022-09-15T09:07:26.239Z,3.30
2022-09-15T09:10:07.331Z,3.40
2022-09-15T09:12:55.969Z,2.60
2022-09-15T09:16:01.150Z,2.80
2022-09-15T09:18:52.736Z,3.20
2022-09-15T09:21:35.863Z,3.30
2022-09-15T09:24:14.376Z,3.70
2022-09-15T09:26:44.428Z,3.70
2022-09-15T09:29:23.677Z,3.80
2022-09-15T09:31:53.869Z,3.80
2022-09-15T09:35:18.339Z,4.10
2022-09-15T09:37:47.023Z,4.00
2022-09-15T09:40:16.982Z,3.60
2022-09-15T09:42:46.657Z,4.20
2022-09-15T09:45:18.845Z,4.00
2022-09-15T09:47:47.613Z,4.40
2022-09-15T09:50:32.980Z,3.80
2022-09-15T09:53:20.918Z,3.70
2022-09-15T09:55:49.503Z,4.50
2022-09-15T09:58:24.634Z,3.10
2022-09-15T10:00:53.940Z,3.90
2022-09-15T10:03:32.083Z,4.10
2022-09-15T10:06:14.344Z,3.70
2022-09-15T10:08:59.662Z,5.10
2022-09-15T10:11:42.644Z,5.40
2022-09-15T10:14:31.660Z,5.70
2022-09-15T10:17:02.277Z,6.80
2022-09-15T10:19:35.235Z,6.30
2022-09-15T10:22:05.137Z,6.30
2022-09-15T10:24:39.249Z,6.10
2022-09-15T10:27:17.778Z,5.70
2022-09-15T10:29:47.557Z,6.90
2022-09-15T10:32:25.950Z,4.70
2022-09-15T10:35:15.318Z,4.60
2022-09-15T10:38:11.592Z,5.40
2022-09-15T10:41:08.135Z,5.10
2022-09-15T10:43:56.681Z,5.40
2022-09-15T10:46:44.523Z,5.00
2022-09-15T10:49:34.396Z,4.80
2022-09-15T10:52:30.936Z,5.30
2022-09-15T10:55:08.848Z,4.20
2022-09-15T10:58:01.481Z,3.70
2022-09-15T11:01:08.616Z,4.60
2022-09-15T11:03:43.306Z,3.30
2022-09-15T11:06:40.668Z,3.40
2022-09-15T11:09:18.162Z,2.80
2022-09-15T11:12:01.786Z,3.00
2022-09-15T11:14:59.355Z,2.60
2022-09-15T11:18:00.403Z,2.70
2022-09-15T11:20:39.469Z,2.70
2022-09-15T11:23:19.165Z,2.40
2022-09-15T11:25:57.438Z,2.60
2022-09-15T11:28:36.301Z,2.70
2022-09-15T11:31:20.379Z,2.90
2022-09-15T11:34:30.402Z,2.10
2022-09-15T11:37:05.125Z,2.20
2022-09-15T11:39:40.276Z,2.50
2022-09-15T11:42:22.668Z,2.00
2022-09-15T11:44:51.659Z,2.00
2022-09-15T11:47:24.983Z,1.20
2022-09-15T11:50:17.195Z,1.10
2022-09-15T11:53:05.716Z,1.70
2022-09-15T11:56:03.421Z,1.50
2022-09-15T11:58:46.761Z,1.40
2022-09-15T12:01:28.056Z,1.00
2022-09-15T12:04:08.788Z,1.10
2022-09-15T12:06:54.636Z,1.60
2022-09-15T12:09:23.464Z,1.70
2022-09-15T12:11:57.683Z,1.90
2022-09-15T12:14:41.662Z,1.80
2022-09-15T12:17:21.571Z,1.50
2022-09-15T12:20:04.190Z,1.80
2022-09-15T12:22:42.278Z,1.70
2022-09-15T12:25:29.001Z,1.40
2022-09-15T12:28:22.678Z,1.90
2022-09-15T12:31:30.504Z,2.10
2022-09-15T12:34:03.972Z,2.00
2022-09-15T12:36:42.061Z,2.00
2022-09-15T12:39:30.323Z,1.90
2022-09-15T12:42:07.100Z,1.80
2022-09-15T12:44:54.423Z,1.80
2022-09-15T12:47:34.996Z,1.90
2022-09-15T12:50:15.964Z,2.00
2022-09-15T12:52:49.555Z,1.80
2022-09-15T12:55:48.041Z,1.50
2022-09-15T12:58:20.322Z,1.40
2022-09-15T13:01:17.108Z,1.60
2022-09-15T13:03:44.435Z,1.50
2022-09-15T13:06:21.697Z,1.90
2022-09-15T13:09:04.572Z,1.70
2022-09-15T13:14:50.621Z,1.60
2022-09-15T13:17:24.433Z,1.60
2022-09-15T13:20:00.655Z,1.80
2022-09-15T13:22:37.982Z,1.80
2022-09-15T13:25:15.903Z,1.50
2022-09-15T13:27:46.212Z,1.20
2022-09-15T13:30:51.706Z,1.10
2022-09-15T13:38:03.823Z,1.00
2022-09-15T13:39:42.705Z,1.10
2022-09-15T13:42:17.128Z,1.10
2022-09-15T13:45:00.362Z,1.10
2022-09-15T13:47:32.519Z,1.20
2022-09-15T13:50:25.474Z,0.90
2022-09-15T13:53:12.178Z,1.00
2022-09-15T13:55:44.615Z,1.10
2022-09-15T14:01:07.824Z,1.40
2022-09-15T14:03:50.854Z,1.30
2022-09-15T14:06:30.639Z,1.20
2022-09-15T14:09:06.758Z,1.20
2022-09-15T14:11:38.197Z,1.40
2022-09-15T14:14:11.855Z,1.30
2022-09-15T14:16:50.086Z,1.20
2022-09-15T14:19:34.016Z,1.30
2022-09-15T14:22:27.947Z,1.20
2022-09-15T14:24:58.372Z,1.30
2022-09-15T14:27:33.998Z,1.40
2022-09-15T14:30:06.084Z,1.40
2022-09-15T14:32:40.300Z,1.30
2022-09-15T14:35:17.374Z,1.30
2022-09-15T14:37:57.099Z,1.60
2022-09-15T14:40:39.302Z,1.10
2022-09-15T14:43:33.204Z,1.60
2022-09-15T14:46:18.102Z,2.00
2022-09-15T14:48:46.748Z,1.40
2022-09-15T14:51:34.592Z,1.30
2022-09-15T14:54:06.143Z,1.50
2022-09-15T14:56:43.228Z,2.10
2022-09-15T14:59:20.112Z,1.70
2022-09-15T15:02:11.431Z,1.60
2022-09-15T15:04:44.508Z,1.50
2022-09-15T15:07:26.455Z,2.10
2022-09-15T15:10:17.415Z,1.80
2022-09-15T15:12:56.746Z,2.00
2022-09-15T15:15:25.633Z,2.70
2022-09-15T15:17:55.106Z,3.00
2022-09-15T15:20:33.254Z,2.60
2022-09-15T15:23:18.031Z,3.20
2022-09-15T15:25:49.660Z,3.30
2022-09-15T15:28:38.139Z,2.70
2022-09-15T15:31:19.719Z,2.40
2022-09-15T15:33:59.799Z,2.70
2022-09-15T15:36:29.458Z,3.00
2022-09-15T15:39:00.704Z,3.10
2022-09-15T15:41:33.812Z,2.90
2022-09-15T15:44:10.385Z,3.00
2022-09-15T15:46:50.832Z,3.40
2022-09-15T15:49:21.269Z,3.00
2022-09-15T15:51:50.487Z,3.40
2022-09-15T15:54:19.358Z,3.60
2022-09-15T15:56:48.136Z,3.10
2022-09-15T15:59:17.939Z,3.50
2022-09-15T16:01:51.315Z,3.30
2022-09-15T16:04:20.340Z,3.00
2022-09-15T16:06:49.018Z,3.30
2022-09-15T16:09:18.383Z,3.10
2022-09-15T16:11:47.112Z,3.60
2022-09-15T16:16:45.718Z,3.50
2022-09-15T16:21:43.381Z,4.20
2022-09-15T16:24:16.622Z,3.20
2022-09-15T16:26:45.373Z,3.50
2022-09-15T16:29:14.050Z,3.20
2022-09-15T16:31:43.205Z,3.20
2022-09-15T16:34:18.056Z,3.20
2022-09-15T16:36:47.370Z,3.10
2022-09-15T16:39:16.370Z,3.00
2022-09-15T16:41:45.053Z,2.70
2022-09-15T16:44:19.365Z,3.10
2022-09-15T16:46:48.622Z,3.10
2022-09-15T16:49:20.306Z,3.00
2022-09-15T16:51:49.115Z,3.40
2022-09-15T16:54:20.959Z,2.70
2022-09-15T16:56:49.658Z,2.60
2022-09-15T16:59:19.892Z,2.70
2022-09-15T17:01:48.779Z,3.00
2022-09-15T17:04:19.292Z,2.90
2022-09-15T17:06:48.084Z,3.20
2022-09-15T17:09:17.590Z,2.40
2022-09-15T17:11:46.980Z,2.90
2022-09-15T17:14:18.295Z,2.60
2022-09-15T17:16:53.470Z,2.80
2022-09-15T17:19:22.558Z,2.60
2022-09-15T17:21:53.307Z,2.50
2022-09-15T17:24:22.202Z,2.80
2022-09-15T17:26:50.680Z,2.40
2022-09-15T17:29:19.163Z,2.40
2022-09-15T17:31:47.752Z,2.50
2022-09-15T17:34:16.436Z,3.00
2022-09-15T17:36:45.935Z,2.30
2022-09-15T17:39:14.619Z,2.50
2022-09-15T17:41:44.942Z,3.10
2022-09-15T17:44:13.729Z,2.90
2022-09-15T17:46:42.417Z,3.40
2022-09-15T17:49:11.097Z,3.10
2022-09-15T17:51:40.910Z,3.10
2022-09-15T17:54:11.774Z,3.50
2022-09-15T17:56:40.304Z,3.00
2022-09-15T17:59:10.900Z,2.70
2022-09-15T18:01:42.971Z,2.80
2022-09-15T18:04:11.749Z,2.40
2022-09-15T18:06:47.116Z,2.90
2022-09-15T18:09:17.993Z,2.70
2022-09-15T18:11:46.518Z,2.40
2022-09-15T18:14:15.259Z,2.60
2022-09-15T18:16:43.741Z,3.30
2022-09-15T18:19:14.986Z,3.10
2022-09-15T18:21:51.052Z,2.60
2022-09-15T18:24:20.245Z,2.50
2022-09-15T18:26:48.726Z,2.30
2022-09-15T18:29:17.202Z,2.30
2022-09-15T18:31:46.915Z,2.50
2022-09-15T18:34:15.533Z,2.40
2022-09-15T18:36:43.977Z,2.60
2022-09-15T18:39:12.460Z,2.90
2022-09-15T18:41:41.109Z,2.90
2022-09-15T18:44:09.525Z,3.00
2022-09-15T18:46:39.871Z,2.80
2022-09-15T18:49:09.759Z,2.50
2022-09-15T18:51:51.295Z,2.40
2022-09-15T18:54:20.545Z,2.70
2022-09-15T18:56:49.025Z,3.10
2022-09-15T18:59:17.984Z,3.00
2022-09-15T19:01:46.716Z,2.40
2022-09-15T19:04:15.397Z,2.70
2022-09-15T19:06:43.975Z,2.70
2022-09-15T19:09:12.658Z,2.60
2022-09-15T19:11:41.057Z,2.90
2022-09-15T19:14:09.519Z,2.50
2022-09-15T19:16:56.547Z,2.40
2022-09-15T19:19:26.343Z,2.90
2022-09-15T19:21:54.823Z,2.80
2022-09-15T19:24:23.313Z,2.50
2022-09-15T19:26:51.691Z,3.10
2022-09-15T19:29:20.268Z,3.20
2022-09-15T19:31:49.363Z,3.00
2022-09-15T19:34:18.460Z,3.50
2022-09-15T19:36:47.145Z,3.90
2022-09-15T19:39:15.626Z,2.80
2022-09-15T19:41:44.411Z,3.20
2022-09-15T19:44:12.998Z,3.90
2022-09-15T19:46:42.504Z,4.40
2022-09-15T19:49:11.804Z,4.60
2022-09-15T19:51:41.220Z,3.80
2022-09-15T19:54:10.301Z,4.20
2022-09-15T19:56:39.192Z,3.80
2022-09-15T19:59:07.776Z,4.00
2022-09-15T20:01:36.601Z,3.90
2022-09-15T20:04:05.962Z,3.70
2022-09-15T20:06:35.775Z,4.50
2022-09-15T20:09:05.383Z,3.80
2022-09-15T20:11:34.782Z,3.20
2022-09-15T20:14:04.701Z,3.50
2022-09-15T20:16:33.869Z,4.00
2022-09-15T20:19:06.782Z,4.00
2022-09-15T20:21:54.013Z,3.60
2022-09-15T20:24:24.831Z,3.80
2022-09-15T20:26:54.752Z,4.50
2022-09-15T20:29:24.259Z,4.30
2022-09-15T20:31:54.410Z,5.30
2022-09-15T20:34:22.858Z,4.20
2022-09-15T20:36:51.440Z,4.30
2022-09-15T20:39:22.592Z,3.90
2022-09-15T20:41:51.273Z,3.60
2022-09-15T20:44:19.754Z,4.20
2022-09-15T20:46:48.334Z,4.10
2022-09-15T20:49:17.734Z,4.10
2022-09-15T20:51:46.630Z,3.70
2022-09-15T20:54:15.212Z,4.30
2022-09-15T20:56:45.127Z,3.90
2022-09-15T20:59:14.577Z,4.10
2022-09-15T21:01:43.884Z,4.50
2022-09-15T21:04:13.021Z,4.80
2022-09-15T21:06:41.609Z,4.30
2022-09-15T21:09:10.292Z,4.70
2022-09-15T21:11:39.699Z,3.80
2022-09-15T21:14:08.284Z,4.20
2022-09-15T21:16:36.947Z,5.00
2022-09-15T21:19:06.267Z,4.10
2022-09-15T21:21:36.578Z,4.40
2022-09-15T21:24:07.821Z,4.90
2022-09-15T21:27:02.019Z,4.40
2022-09-15T21:29:31.832Z,4.40
2022-09-15T21:32:01.616Z,4.50
2022-09-15T21:34:31.961Z,4.50
2022-09-15T21:37:00.855Z,4.30
2022-09-15T21:39:29.750Z,4.50
2022-09-15T21:42:00.178Z,5.90
2022-09-15T21:44:29.169Z,5.30
2022-09-15T21:46:58.268Z,5.30
2022-09-15T21:49:26.949Z,5.10
2022-09-15T21:51:56.895Z,4.80
2022-09-15T21:54:25.664Z,5.20
2022-09-15T21:56:54.866Z,5.90
2022-09-15T21:59:23.631Z,4.90
2022-09-15T22:01:52.347Z,5.00
2022-09-15T22:04:23.062Z,4.50
2022-09-15T22:06:53.130Z,4.80
2022-09-15T22:09:21.938Z,4.50
2022-09-15T22:11:50.651Z,4.90
2022-09-15T22:14:21.846Z,5.00
2022-09-15T22:16:52.248Z,5.40
2022-09-15T22:19:21.839Z,5.00
2022-09-15T22:21:50.609Z,4.70
2022-09-15T22:24:20.130Z,5.20
2022-09-15T22:26:49.423Z,3.80
2022-09-15T22:29:18.632Z,4.10
2022-09-15T22:31:47.748Z,4.20
2022-09-15T22:34:17.216Z,4.30
2022-09-15T22:36:46.106Z,4.00
2022-09-15T22:39:15.310Z,4.30
2022-09-15T22:41:44.800Z,4.30
2022-09-15T22:46:51.777Z,3.30
2022-09-15T22:49:21.445Z,4.50
2022-09-15T22:51:51.787Z,4.50
2022-09-15T22:54:21.448Z,3.90
2022-09-15T22:56:50.447Z,4.00
2022-09-15T22:59:20.253Z,4.30
2022-09-15T23:01:49.778Z,3.40
2022-09-15T23:04:19.279Z,3.80
2022-09-15T23:06:52.992Z,4.20
2022-09-15T23:09:23.255Z,3.60
2022-09-15T23:11:53.236Z,3.90
2022-09-15T23:14:23.483Z,3.70
2022-09-15T23:16:52.832Z,3.60
2022-09-15T23:19:21.519Z,3.80
2022-09-15T23:21:51.270Z,3.80
2022-09-15T23:26:50.623Z,4.20
2022-09-15T23:29:20.876Z,5.40
2022-09-15T23:31:51.763Z,5.20
2022-09-15T23:34:22.734Z,5.60
2022-09-15T23:36:52.658Z,4.10
2022-09-15T23:39:22.177Z,5.10
2022-09-15T23:41:53.358Z,5.30
2022-09-15T23:44:24.174Z,5.40
2022-09-15T23:49:24.205Z,5.50
2022-09-15T23:51:54.159Z,5.00
2022-09-15T23:54:24.569Z,4.60
2022-09-15T23:59:23.320Z,5.40
